createdAt,value
2019-06-10T00:01:35.866Z,2.77
2019-06-10T00:04:07.982Z,3.10
2019-06-10T00:06:33.376Z,2.98
2019-06-10T00:09:03.115Z,3.17
2019-06-10T00:11:31.501Z,3.20
2019-06-10T00:14:02.459Z,3.10
2019-06-10T00:16:30.825Z,3.22
2019-06-10T00:18:58.108Z,3.33
2019-06-10T00:21:25.692Z,3.40
2019-06-10T00:23:52.866Z,3.00
2019-06-10T00:26:21.603Z,3.00
2019-06-10T00:28:51.289Z,3.25
2019-06-10T00:31:20.597Z,3.08
2019-06-10T00:33:47.985Z,3.37
2019-06-10T00:36:15.436Z,2.85
2019-06-10T00:38:42.895Z,3.35
2019-06-10T00:41:13.927Z,3.10
2019-06-10T00:43:41.150Z,3.20
2019-06-10T00:46:09.575Z,3.30
2019-06-10T00:48:37.544Z,3.62
2019-06-10T00:51:06.079Z,2.77
2019-06-10T00:53:34.639Z,3.10
2019-06-10T00:56:04.879Z,3.33
2019-06-10T00:58:31.933Z,3.33
2019-06-10T01:01:01.129Z,3.00
2019-06-10T01:03:31.153Z,2.92
2019-06-10T01:05:58.352Z,3.30
2019-06-10T01:08:25.502Z,3.08
2019-06-10T01:10:53.161Z,3.47
2019-06-10T01:13:20.919Z,3.37
2019-06-10T01:15:50.950Z,2.90
2019-06-10T01:18:33.676Z,3.30
2019-06-10T01:20:47.391Z,3.70
2019-06-10T01:23:15.725Z,2.85
2019-06-10T01:25:43.830Z,3.20
2019-06-10T01:28:14.586Z,2.98
2019-06-10T01:30:41.216Z,2.95
2019-06-10T01:33:12.408Z,3.12
2019-06-10T01:35:41.176Z,2.80
2019-06-10T01:38:08.015Z,3.50
2019-06-10T01:40:35.742Z,3.25
2019-06-10T01:43:03.500Z,3.58
2019-06-10T01:45:31.283Z,3.58
2019-06-10T01:48:01.323Z,3.50
2019-06-10T01:50:28.556Z,3.10
2019-06-10T01:52:56.406Z,3.33
2019-06-10T01:55:23.940Z,3.37
2019-06-10T01:57:51.822Z,3.65
2019-06-10T02:00:25.800Z,3.22
2019-06-10T02:02:52.438Z,3.50
2019-06-10T02:05:22.685Z,3.87
2019-06-10T02:07:51.517Z,3.42
2019-06-10T02:10:19.059Z,3.20
2019-06-10T02:12:47.579Z,3.75
2019-06-10T02:15:15.612Z,3.58
2019-06-10T02:17:44.823Z,2.95
2019-06-10T02:20:14.823Z,3.92
2019-06-10T02:22:41.633Z,3.00
2019-06-10T02:25:10.986Z,3.72
2019-06-10T02:27:41.354Z,3.42
2019-06-10T02:30:18.998Z,3.02
2019-06-10T02:32:38.307Z,3.67
2019-06-10T02:35:13.628Z,3.22
2019-06-10T02:37:38.401Z,3.08
2019-06-10T02:40:05.703Z,3.05
2019-06-10T02:42:37.429Z,2.77
2019-06-10T02:45:07.654Z,3.62
2019-06-10T02:47:37.877Z,3.60
2019-06-10T02:50:08.777Z,3.62
2019-06-10T02:52:38.630Z,3.30
2019-06-10T02:55:04.671Z,3.20
2019-06-10T02:57:39.390Z,3.33
2019-06-10T03:00:06.486Z,3.08
2019-06-10T03:02:35.854Z,3.42
2019-06-10T03:05:04.232Z,3.17
2019-06-10T03:07:32.661Z,3.20
2019-06-10T03:09:59.868Z,3.10
2019-06-10T03:12:28.218Z,3.30
2019-06-10T03:14:55.422Z,3.17
2019-06-10T03:17:25.859Z,3.17
2019-06-10T03:19:53.624Z,2.90
2019-06-10T03:22:23.004Z,2.98
2019-06-10T03:24:52.378Z,3.25
2019-06-10T03:27:21.087Z,3.10
2019-06-10T03:29:49.416Z,3.20
2019-06-10T03:32:19.660Z,3.33
2019-06-10T03:34:47.677Z,3.15
2019-06-10T03:37:16.331Z,3.20
2019-06-10T03:39:43.855Z,3.27
2019-06-10T03:42:12.601Z,3.58
2019-06-10T03:44:40.235Z,3.15
2019-06-10T03:47:07.670Z,3.10
2019-06-10T03:49:49.140Z,3.20
2019-06-10T03:52:04.003Z,3.60
2019-06-10T03:54:32.531Z,3.35
2019-06-10T03:57:02.644Z,3.55
2019-06-10T03:59:32.241Z,3.08
2019-06-10T04:01:58.757Z,3.40
2019-06-10T04:04:27.107Z,3.70
2019-06-10T04:06:55.560Z,3.12
2019-06-10T04:09:25.400Z,3.25
2019-06-10T04:11:53.255Z,3.42
2019-06-10T04:14:22.458Z,3.27
2019-06-10T04:16:52.550Z,3.42
2019-06-10T04:19:22.267Z,3.58
2019-06-10T04:21:49.426Z,3.37
2019-06-10T04:24:17.667Z,2.95
2019-06-10T04:26:45.222Z,3.42
2019-06-10T04:29:13.046Z,3.55
2019-06-10T04:31:42.455Z,3.00
2019-06-10T04:34:12.245Z,3.90
2019-06-10T04:36:39.169Z,3.47
2019-06-10T04:39:06.868Z,3.27
2019-06-10T04:41:34.437Z,3.50
2019-06-10T04:44:02.667Z,3.33
2019-06-10T04:46:32.336Z,3.10
2019-06-10T04:48:59.395Z,3.35
2019-06-10T04:51:28.449Z,3.62
2019-06-10T04:53:56.834Z,3.50
2019-06-10T04:56:26.167Z,3.42
2019-06-10T04:58:53.130Z,3.25
2019-06-10T05:01:21.626Z,3.60
2019-06-10T05:03:49.317Z,3.52
2019-06-10T05:06:17.076Z,4.12
2019-06-10T05:08:44.474Z,3.30
2019-06-10T05:11:12.807Z,3.50
2019-06-10T05:13:42.632Z,3.75
2019-06-10T05:16:12.484Z,3.42
2019-06-10T05:18:42.171Z,2.87
2019-06-10T05:21:09.267Z,3.60
2019-06-10T05:23:36.717Z,3.22
2019-06-10T05:26:04.246Z,3.05
2019-06-10T05:28:33.928Z,3.02
2019-06-10T05:31:02.786Z,3.92
2019-06-10T05:33:30.531Z,3.60
2019-06-10T05:35:59.512Z,3.35
2019-06-10T05:38:27.519Z,3.42
2019-06-10T05:40:56.179Z,3.35
2019-06-10T05:43:24.937Z,3.45
2019-06-10T05:45:52.997Z,3.05
2019-06-10T05:48:22.703Z,3.17
2019-06-10T05:51:00.161Z,3.02
2019-06-10T05:53:18.962Z,3.45
2019-06-10T05:55:46.427Z,3.33
2019-06-10T05:58:14.018Z,3.10
2019-06-10T06:00:42.897Z,3.10
2019-06-10T06:03:12.031Z,3.10
2019-06-10T06:05:39.525Z,3.40
2019-06-10T06:08:08.889Z,3.47
2019-06-10T06:10:36.111Z,3.22
2019-06-10T06:13:03.417Z,3.05
2019-06-10T06:15:34.003Z,2.92
2019-06-10T06:18:07.158Z,3.37
2019-06-10T06:20:29.364Z,3.00
2019-06-10T06:22:56.867Z,3.30
2019-06-10T06:25:24.321Z,2.80
2019-06-10T06:27:52.491Z,3.25
2019-06-10T06:30:20.016Z,3.25
2019-06-10T06:32:47.566Z,3.30
2019-06-10T06:35:15.495Z,3.37
2019-06-10T06:37:43.023Z,2.70
2019-06-10T06:40:13.069Z,3.30
2019-06-10T06:42:40.039Z,3.25
2019-06-10T06:45:07.693Z,3.30
2019-06-10T06:47:36.091Z,3.42
2019-06-10T06:50:04.495Z,3.58
2019-06-10T06:53:07.697Z,3.65
2019-06-10T06:55:02.484Z,3.58
2019-06-10T06:57:31.028Z,3.20
2019-06-10T06:59:59.106Z,3.52
2019-06-10T07:02:26.638Z,3.33
2019-06-10T07:04:53.818Z,3.42
2019-06-10T07:07:22.244Z,3.27
2019-06-10T07:09:52.628Z,3.33
2019-06-10T07:12:23.099Z,3.77
2019-06-10T07:14:52.610Z,3.55
2019-06-10T07:17:22.615Z,3.58
2019-06-10T07:19:49.363Z,3.42
2019-06-10T07:22:17.085Z,3.55
2019-06-10T07:24:47.484Z,3.50
2019-06-10T07:27:13.958Z,3.72
2019-06-10T07:29:47.004Z,3.35
2019-06-10T07:32:12.415Z,3.80
2019-06-10T07:34:40.466Z,3.22
2019-06-10T07:37:09.226Z,3.20
2019-06-10T07:39:38.005Z,3.27
2019-06-10T07:42:05.926Z,3.58
2019-06-10T07:44:34.881Z,3.27
2019-06-10T07:47:02.830Z,3.45
2019-06-10T07:49:32.161Z,3.10
2019-06-10T07:52:12.158Z,3.52
2019-06-10T07:54:28.534Z,3.25
2019-06-10T07:56:56.238Z,3.15
2019-06-10T07:59:23.930Z,3.22
2019-06-10T08:01:54.749Z,3.10
2019-06-10T08:04:22.613Z,3.60
2019-06-10T08:06:52.908Z,3.98
2019-06-10T08:09:19.579Z,3.67
2019-06-10T08:11:48.620Z,3.40
2019-06-10T08:14:16.167Z,3.37
2019-06-10T08:16:46.527Z,3.40
2019-06-10T08:19:34.793Z,3.33
2019-06-10T08:21:45.793Z,3.90
2019-06-10T08:24:12.693Z,3.42
2019-06-10T08:26:42.619Z,3.30
2019-06-10T08:29:09.611Z,2.87
2019-06-10T08:31:38.700Z,3.08
2019-06-10T08:34:06.271Z,2.83
2019-06-10T08:36:33.590Z,3.12
2019-06-10T08:39:03.211Z,3.33
2019-06-10T08:41:32.257Z,3.33
2019-06-10T08:44:02.119Z,3.58
2019-06-10T08:46:29.297Z,4.00
2019-06-10T08:48:56.720Z,3.67
2019-06-10T08:51:24.053Z,3.30
2019-06-10T08:53:53.188Z,3.20
2019-06-10T08:56:22.438Z,3.37
2019-06-10T08:58:50.814Z,3.15
2019-06-10T09:01:18.606Z,3.45
2019-06-10T09:03:49.005Z,4.28
2019-06-10T09:06:15.308Z,2.95
2019-06-10T09:08:46.380Z,3.40
2019-06-10T09:11:13.157Z,3.02
2019-06-10T09:13:43.784Z,3.27
2019-06-10T09:16:18.246Z,3.15
2019-06-10T09:18:39.969Z,3.22
2019-06-10T09:21:08.502Z,2.80
2019-06-10T09:23:35.606Z,3.35
2019-06-10T09:26:03.644Z,3.20
2019-06-10T09:28:32.823Z,3.72
2019-06-10T09:31:03.653Z,3.22
2019-06-10T09:33:29.666Z,3.33
2019-06-10T09:35:57.111Z,3.40
2019-06-10T09:38:24.562Z,3.27
2019-06-10T09:41:00.869Z,3.30
2019-06-10T09:43:23.343Z,3.22
2019-06-10T09:45:55.425Z,3.25
2019-06-10T09:48:22.881Z,3.55
2019-06-10T09:50:57.542Z,3.08
2019-06-10T09:53:30.246Z,3.33
2019-06-10T09:55:53.086Z,3.30
2019-06-10T09:58:18.921Z,3.10
2019-06-10T10:00:51.025Z,2.80
2019-06-10T10:03:17.539Z,3.50
2019-06-10T10:05:55.762Z,3.12
2019-06-10T10:08:15.266Z,3.85
2019-06-10T10:10:46.013Z,3.40
2019-06-10T10:13:13.048Z,3.55
2019-06-10T10:15:41.869Z,3.90
2019-06-10T10:18:13.185Z,3.17
2019-06-10T10:20:39.570Z,3.22
2019-06-10T10:23:07.462Z,3.52
2019-06-10T10:25:34.922Z,3.95
2019-06-10T10:28:03.203Z,3.25
2019-06-10T10:30:33.194Z,3.02
2019-06-10T10:33:02.853Z,3.22
2019-06-10T10:35:32.510Z,3.70
2019-06-10T10:37:59.352Z,3.30
2019-06-10T10:40:26.731Z,3.85
2019-06-10T10:43:05.580Z,2.83
2019-06-10T10:45:23.798Z,2.72
2019-06-10T10:47:52.635Z,2.95
2019-06-10T10:50:22.533Z,3.00
2019-06-10T10:52:52.251Z,2.90
2019-06-10T10:55:19.558Z,3.08
2019-06-10T10:57:47.325Z,3.20
2019-06-10T11:00:16.842Z,2.50
2019-06-10T11:02:44.977Z,3.02
2019-06-10T11:05:33.262Z,2.67
2019-06-10T11:08:01.332Z,2.42
2019-06-10T11:10:29.183Z,2.55
2019-06-10T11:12:57.999Z,2.72
2019-06-10T11:15:27.449Z,2.52
2019-06-10T11:17:56.389Z,2.33
2019-06-10T11:20:24.022Z,2.40
2019-06-10T11:22:51.710Z,2.45
2019-06-10T11:25:18.871Z,2.50
2019-06-10T11:27:46.470Z,2.83
2019-06-10T11:30:14.319Z,2.45
2019-06-10T11:32:43.264Z,2.85
2019-06-10T11:35:12.154Z,2.75
2019-06-10T11:37:39.545Z,2.77
2019-06-10T11:40:06.815Z,2.75
2019-06-10T11:42:34.440Z,2.90
2019-06-10T11:45:02.966Z,2.40
2019-06-10T11:47:32.886Z,2.50
2019-06-10T11:49:59.666Z,2.62
2019-06-10T11:52:27.051Z,2.77
2019-06-10T11:55:07.235Z,2.58
2019-06-10T11:57:23.893Z,2.75
2019-06-10T11:59:53.272Z,2.20
2019-06-10T12:02:22.316Z,2.67
2019-06-10T12:04:51.074Z,2.35
2019-06-10T12:07:19.130Z,2.27
2019-06-10T12:09:46.464Z,2.50
2019-06-10T12:12:14.143Z,2.50
2019-06-10T12:14:43.179Z,2.60
2019-06-10T12:17:27.583Z,2.95
2019-06-10T12:19:39.883Z,2.90
2019-06-10T12:22:07.774Z,2.87
2019-06-10T12:24:34.994Z,2.55
2019-06-10T12:27:05.039Z,2.75
2019-06-10T12:29:31.927Z,2.60
2019-06-10T12:32:03.706Z,2.52
2019-06-10T12:34:28.347Z,2.50
2019-06-10T12:36:59.890Z,2.55
2019-06-10T12:39:25.227Z,2.77
2019-06-10T12:41:56.013Z,2.90
2019-06-10T12:44:22.801Z,2.50
2019-06-10T12:46:53.327Z,2.83
2019-06-10T12:49:19.311Z,3.00
2019-06-10T12:51:46.632Z,2.75
2019-06-10T12:54:14.120Z,2.60
2019-06-10T12:56:42.909Z,2.55
2019-06-10T12:59:13.288Z,2.50
2019-06-10T13:01:39.687Z,2.20
2019-06-10T13:04:08.010Z,2.10
2019-06-10T13:06:38.303Z,2.60
2019-06-10T13:09:06.375Z,2.65
2019-06-10T13:11:34.002Z,2.30
2019-06-10T13:14:04.025Z,2.30
2019-06-10T13:16:32.006Z,2.58
2019-06-10T13:19:00.192Z,2.60
2019-06-10T13:21:27.546Z,2.10
2019-06-10T13:23:56.035Z,2.20
2019-06-10T13:26:23.608Z,2.30
2019-06-10T13:28:52.538Z,2.52
2019-06-10T13:31:20.302Z,2.20
2019-06-10T13:33:47.605Z,2.15
2019-06-10T13:36:15.051Z,2.58
2019-06-10T13:38:42.973Z,2.62
2019-06-10T13:41:10.399Z,2.27
2019-06-10T13:43:37.880Z,2.55
2019-06-10T13:46:08.599Z,2.80
2019-06-10T13:48:34.470Z,2.42
2019-06-10T13:51:07.243Z,2.80
2019-06-10T13:53:31.269Z,2.87
2019-06-10T13:56:19.925Z,2.20
2019-06-10T13:58:28.145Z,2.52
2019-06-10T14:00:56.152Z,2.52
2019-06-10T14:03:23.568Z,2.98
2019-06-10T14:05:57.706Z,2.50
2019-06-10T14:08:23.024Z,2.50
2019-06-10T14:10:49.899Z,2.62
2019-06-10T14:13:17.404Z,2.80
2019-06-10T14:15:45.153Z,2.70
2019-06-10T14:18:14.994Z,2.20
2019-06-10T14:20:44.070Z,2.70
2019-06-10T14:23:13.150Z,2.37
2019-06-10T14:25:42.400Z,2.50
2019-06-10T14:28:12.613Z,2.40
2019-06-10T14:30:39.625Z,2.55
2019-06-10T14:33:07.442Z,2.45
2019-06-10T14:35:34.717Z,2.47
2019-06-10T14:38:03.513Z,2.62
2019-06-10T14:40:32.434Z,2.85
2019-06-10T14:43:00.346Z,2.62
2019-06-10T14:45:27.830Z,2.52
2019-06-10T14:47:58.704Z,2.75
2019-06-10T14:50:25.196Z,2.60
2019-06-10T14:52:52.392Z,2.90
2019-06-10T14:55:19.759Z,2.80
2019-06-10T14:57:47.256Z,2.80
2019-06-10T15:00:17.975Z,2.50
2019-06-10T15:02:44.895Z,2.33
2019-06-10T15:05:15.557Z,2.40
2019-06-10T15:07:42.419Z,2.45
2019-06-10T15:10:12.804Z,2.40
2019-06-10T15:12:39.318Z,2.70
2019-06-10T15:15:08.120Z,2.42
2019-06-10T15:17:35.839Z,2.40
2019-06-10T15:20:03.854Z,2.60
2019-06-10T15:22:33.007Z,2.50
2019-06-10T15:25:03.246Z,2.58
2019-06-10T15:27:33.698Z,2.45
2019-06-10T15:29:59.993Z,2.50
2019-06-10T15:32:34.294Z,2.30
2019-06-10T15:34:56.323Z,2.60
2019-06-10T15:37:24.253Z,2.90
2019-06-10T15:39:52.835Z,2.95
2019-06-10T15:42:22.438Z,2.80
2019-06-10T15:44:55.183Z,2.62
2019-06-10T15:47:21.007Z,2.65
2019-06-10T15:49:48.261Z,2.70
2019-06-10T15:52:17.477Z,2.87
2019-06-10T15:54:45.300Z,2.40
2019-06-10T15:57:26.492Z,2.35
2019-06-10T15:59:42.770Z,2.90
2019-06-10T16:02:11.942Z,2.75
2019-06-10T16:04:39.759Z,2.70
2019-06-10T16:07:06.991Z,2.40
2019-06-10T16:09:34.187Z,2.80
2019-06-10T16:12:02.948Z,2.50
2019-06-10T16:14:33.008Z,2.45
2019-06-10T16:17:00.146Z,2.35
2019-06-10T16:19:27.680Z,2.10
2019-06-10T16:21:54.913Z,2.60
2019-06-10T16:24:25.912Z,2.47
2019-06-10T16:26:52.575Z,2.25
2019-06-10T16:29:21.674Z,2.60
2019-06-10T16:31:49.363Z,2.87
2019-06-10T16:34:16.800Z,2.70
2019-06-10T16:36:44.082Z,2.40
2019-06-10T16:39:12.510Z,2.77
2019-06-10T16:41:40.131Z,2.90
2019-06-10T16:44:07.907Z,2.50
2019-06-10T16:46:35.369Z,2.50
2019-06-10T16:49:03.263Z,2.90
2019-06-10T16:51:30.878Z,2.47
2019-06-10T16:53:58.443Z,2.67
2019-06-10T16:56:27.702Z,2.22
2019-06-10T16:58:56.004Z,2.15
2019-06-10T17:01:26.475Z,2.50
2019-06-10T17:03:52.811Z,2.70
2019-06-10T17:06:22.432Z,2.67
2019-06-10T17:08:52.130Z,2.27
2019-06-10T17:11:20.717Z,2.35
2019-06-10T17:13:48.705Z,2.33
2019-06-10T17:16:16.175Z,2.37
2019-06-10T17:18:43.355Z,2.30
2019-06-10T17:21:13.042Z,2.60
2019-06-10T17:23:43.123Z,2.50
2019-06-10T17:26:09.547Z,2.75
2019-06-10T17:28:37.170Z,2.30
2019-06-10T17:31:04.800Z,2.35
2019-06-10T17:33:35.626Z,2.12
2019-06-10T17:36:03.343Z,2.60
2019-06-10T17:38:31.302Z,2.62
2019-06-10T17:40:58.611Z,3.22
2019-06-10T17:43:27.233Z,2.37
2019-06-10T17:45:54.859Z,2.60
2019-06-10T17:48:23.913Z,2.52
2019-06-10T17:50:52.438Z,2.52
2019-06-10T17:53:20.247Z,2.85
2019-06-10T17:55:47.448Z,2.42
2019-06-10T17:58:15.150Z,2.65
2019-06-10T18:00:42.447Z,2.60
2019-06-10T18:03:10.020Z,3.25
2019-06-10T18:05:37.454Z,2.75
2019-06-10T18:08:04.986Z,2.47
2019-06-10T18:10:34.457Z,2.58
2019-06-10T18:13:13.217Z,3.02
2019-06-10T18:15:34.243Z,2.58
2019-06-10T18:18:03.301Z,2.52
2019-06-10T18:20:33.067Z,2.80
2019-06-10T18:22:59.182Z,3.15
2019-06-10T18:25:26.584Z,3.08
2019-06-10T18:27:54.107Z,2.77
2019-06-10T18:30:22.248Z,2.75
2019-06-10T18:32:52.404Z,2.98
2019-06-10T18:35:19.359Z,2.70
2019-06-10T18:37:47.119Z,2.80
2019-06-10T18:40:14.747Z,2.52
2019-06-10T18:42:42.000Z,3.17
2019-06-10T18:45:12.847Z,2.95
2019-06-10T18:47:42.158Z,3.60
2019-06-10T18:50:09.735Z,2.80
2019-06-10T18:52:36.943Z,3.22
2019-06-10T18:55:05.147Z,2.92
2019-06-10T18:57:33.571Z,2.98
2019-06-10T19:00:07.091Z,3.05
2019-06-10T19:02:32.352Z,2.72
2019-06-10T19:05:02.677Z,3.00
2019-06-10T19:07:30.743Z,2.40
2019-06-10T19:09:58.551Z,2.52
2019-06-10T19:12:26.167Z,2.20
2019-06-10T19:14:53.304Z,2.00
2019-06-10T19:17:22.944Z,2.20
2019-06-10T19:19:53.108Z,2.35
2019-06-10T19:22:22.390Z,2.40
2019-06-10T19:24:49.675Z,2.50
2019-06-10T19:27:17.714Z,2.40
2019-06-10T19:29:50.725Z,2.00
2019-06-10T19:32:14.034Z,2.33
2019-06-10T19:34:47.283Z,2.42
2019-06-10T19:37:12.879Z,2.70
2019-06-10T19:39:49.308Z,2.60
2019-06-10T19:42:09.855Z,2.47
2019-06-10T19:44:38.728Z,2.45
2019-06-10T19:47:06.009Z,2.20
2019-06-10T19:49:34.177Z,2.62
2019-06-10T19:52:03.033Z,2.10
2019-06-10T19:54:32.268Z,2.35
2019-06-10T19:57:02.526Z,2.12
2019-06-10T19:59:43.541Z,2.02
2019-06-10T20:01:59.299Z,2.22
2019-06-10T20:04:26.823Z,2.05
2019-06-10T20:06:54.094Z,2.10
2019-06-10T20:09:22.638Z,1.95
2019-06-10T20:11:49.994Z,2.20
2019-06-10T20:14:17.149Z,2.08
2019-06-10T20:16:46.000Z,1.98
2019-06-10T20:19:13.480Z,1.80
2019-06-10T20:21:43.515Z,2.20
2019-06-10T20:24:12.461Z,2.20
2019-06-10T20:26:41.252Z,2.15
2019-06-10T20:29:09.125Z,2.47
2019-06-10T20:31:36.339Z,2.33
2019-06-10T20:34:04.133Z,2.02
2019-06-10T20:36:33.386Z,1.95
2019-06-10T20:39:00.752Z,2.40
2019-06-10T20:41:27.967Z,1.62
2019-06-10T20:43:55.636Z,2.00
2019-06-10T20:46:23.706Z,2.00
2019-06-10T20:48:53.965Z,2.00
2019-06-10T20:51:22.623Z,2.33
2019-06-10T20:53:49.791Z,2.00
2019-06-10T20:56:20.107Z,2.08
2019-06-10T20:58:46.821Z,2.22
2019-06-10T21:01:15.443Z,2.10
2019-06-10T21:03:44.248Z,1.95
2019-06-10T21:06:13.709Z,2.10
2019-06-10T21:08:44.949Z,2.00
2019-06-10T21:11:12.910Z,1.90
2019-06-10T21:13:43.627Z,2.12
2019-06-10T21:16:12.491Z,2.00
2019-06-10T21:18:40.315Z,2.17
2019-06-10T21:21:07.799Z,1.90
2019-06-10T21:23:35.083Z,1.87
2019-06-10T21:26:03.102Z,1.90
2019-06-10T21:28:32.662Z,1.80
2019-06-10T21:31:02.480Z,1.80
2019-06-10T21:33:29.427Z,1.90
2019-06-10T21:35:56.844Z,1.90
2019-06-10T21:38:24.447Z,1.90
2019-06-10T21:40:53.922Z,2.10
2019-06-10T21:43:22.370Z,2.22
2019-06-10T21:45:56.143Z,2.02
2019-06-10T21:48:19.425Z,2.00
2019-06-10T21:50:48.166Z,2.10
2019-06-10T21:53:15.723Z,2.30
2019-06-10T21:55:43.987Z,2.00
2019-06-10T21:58:12.348Z,2.35
2019-06-10T22:01:00.928Z,2.30
2019-06-10T22:03:19.332Z,1.92
2019-06-10T22:05:47.474Z,2.05
2019-06-10T22:08:14.791Z,2.05
2019-06-10T22:10:42.889Z,1.90
2019-06-10T22:13:12.464Z,2.10
2019-06-10T22:15:42.391Z,2.50
2019-06-10T22:18:09.602Z,2.00
2019-06-10T22:20:37.049Z,2.60
2019-06-10T22:23:04.740Z,1.80
2019-06-10T22:25:32.958Z,1.75
2019-06-10T22:28:02.756Z,2.12
2019-06-10T22:30:32.128Z,2.10
2019-06-10T22:32:59.626Z,2.08
2019-06-10T22:35:27.614Z,2.02
2019-06-10T22:37:56.400Z,1.80
2019-06-10T22:40:24.420Z,2.17
2019-06-10T22:42:54.917Z,2.17
2019-06-10T22:45:21.539Z,2.02
2019-06-10T22:47:49.707Z,1.77
2019-06-10T22:50:17.538Z,1.60
2019-06-10T22:52:45.248Z,1.47
2019-06-10T22:55:12.970Z,1.77
2019-06-10T22:57:43.725Z,1.45
2019-06-10T23:00:10.032Z,1.07
2019-06-10T23:02:37.694Z,1.55
2019-06-10T23:05:05.676Z,1.50
2019-06-10T23:07:33.067Z,1.30
2019-06-10T23:10:03.097Z,1.50
2019-06-10T23:12:30.791Z,1.42
2019-06-10T23:14:59.301Z,1.42
2019-06-10T23:17:26.866Z,1.30
2019-06-10T23:19:55.370Z,1.45
2019-06-10T23:22:23.668Z,1.50
2019-06-10T23:24:51.518Z,1.55
2019-06-10T23:27:18.932Z,1.17
2019-06-10T23:29:46.419Z,1.92
2019-06-10T23:32:13.871Z,1.50
2019-06-10T23:34:42.222Z,1.40
2019-06-10T23:37:12.395Z,1.45
2019-06-10T23:39:39.262Z,1.72
2019-06-10T23:42:06.565Z,1.50
2019-06-10T23:44:34.079Z,1.67
2019-06-10T23:47:03.659Z,1.20
2019-06-10T23:49:32.277Z,1.60
2019-06-10T23:52:03.153Z,1.40
2019-06-10T23:54:32.185Z,1.40
2019-06-10T23:57:00.683Z,1.50
2019-06-10T23:59:28.524Z,1.42
